Sussex, Wyoming
Current Conditions -  °F | °C
As of 3:53 PM on Monday 24 Nov 2014 (Local Time) from KBYG Reporting Station
Clear Clear  
Wind Chill: 20°   Ceiling: Unl
Heat Index: 31°   Visibility: 10mi
Dew Point: 19°   Wind: 16mph
Humidity: 61%   Direction: 330°NNW
Pressure: 30.1"   Gusts: 28mph
Location:  43.8063°N, 106.549°W
Report Text: KBYG 242253Z AUTO 33014G24KT 10SM CLR M01/M07 A3010 RMK AO2 PK WND 34032/2220 RAB32E33SNB20E32 SLP218 P0000 T10061072
Loading
Personal Weather Stations






























Interactive Weather Map New forecast layout! Learn more

10-Day Weather Forecast

Advertisements
Track Severe Weather on mobile